sensor_id;sensor_type;location;lat;lon;timestamp;temperature;humidity
42833;DHT22;64089;51.478;5.692;2023-08-07T00:00:42;13.60;99.90
42833;DHT22;64089;51.478;5.692;2023-08-07T00:03:08;13.70;99.90
42833;DHT22;64089;51.478;5.692;2023-08-07T00:05:34;13.70;99.90
42833;DHT22;64089;51.478;5.692;2023-08-07T00:07:59;13.70;99.90
42833;DHT22;64089;51.478;5.692;2023-08-07T00:10:26;13.70;99.90
42833;DHT22;64089;51.478;5.692;2023-08-07T00:12:51;13.70;99.90
42833;DHT22;64089;51.478;5.692;2023-08-07T00:15:17;13.70;99.90
42833;DHT22;64089;51.478;5.692;2023-08-07T00:17:42;13.70;99.90
42833;DHT22;64089;51.478;5.692;2023-08-07T00:20:08;13.60;99.90
42833;DHT22;64089;51.478;5.692;2023-08-07T00:22:34;13.60;99.90
42833;DHT22;64089;51.478;5.692;2023-08-07T00:25:00;13.60;99.90
42833;DHT22;64089;51.478;5.692;2023-08-07T00:27:25;13.50;99.90
42833;DHT22;64089;51.478;5.692;2023-08-07T00:29:51;13.50;99.90
42833;DHT22;64089;51.478;5.692;2023-08-07T00:32:17;13.50;99.90
42833;DHT22;64089;51.478;5.692;2023-08-07T00:34:43;13.50;99.90
42833;DHT22;64089;51.478;5.692;2023-08-07T00:37:08;13.50;99.90
42833;DHT22;64089;51.478;5.692;2023-08-07T00:39:34;13.50;99.90
42833;DHT22;64089;51.478;5.692;2023-08-07T00:42:00;13.50;99.90
42833;DHT22;64089;51.478;5.692;2023-08-07T00:44:25;13.50;99.90
42833;DHT22;64089;51.478;5.692;2023-08-07T00:46:51;13.50;99.90
42833;DHT22;64089;51.478;5.692;2023-08-07T00:49:19;13.50;99.90
42833;DHT22;64089;51.478;5.692;2023-08-07T00:51:45;13.50;99.90
42833;DHT22;64089;51.478;5.692;2023-08-07T00:54:15;13.50;99.90
42833;DHT22;64089;51.478;5.692;2023-08-07T00:56:43;13.60;99.90
42833;DHT22;64089;51.478;5.692;2023-08-07T00:59:09;13.60;99.90
42833;DHT22;64089;51.478;5.692;2023-08-07T01:01:35;13.60;99.90
42833;DHT22;64089;51.478;5.692;2023-08-07T01:04:01;13.60;99.90
42833;DHT22;64089;51.478;5.692;2023-08-07T01:06:27;13.60;99.90
42833;DHT22;64089;51.478;5.692;2023-08-07T01:08:53;13.60;99.90
42833;DHT22;64089;51.478;5.692;2023-08-07T01:16:55;13.60;99.90
42833;DHT22;64089;51.478;5.692;2023-08-07T01:19:26;13.60;99.90
42833;DHT22;64089;51.478;5.692;2023-08-07T01:24:32;13.50;99.90
42833;DHT22;64089;51.478;5.692;2023-08-07T01:27:02;13.50;99.90
42833;DHT22;64089;51.478;5.692;2023-08-07T01:35:20;13.60;99.90
42833;DHT22;64089;51.478;5.692;2023-08-07T01:37:48;13.60;99.90
42833;DHT22;64089;51.478;5.692;2023-08-07T01:40:16;13.60;99.90
42833;DHT22;64089;51.478;5.692;2023-08-07T01:42:42;13.60;99.90
42833;DHT22;64089;51.478;5.692;2023-08-07T01:45:08;13.60;99.90
42833;DHT22;64089;51.478;5.692;2023-08-07T01:47:34;13.60;99.90
42833;DHT22;64089;51.478;5.692;2023-08-07T01:50:00;13.60;99.90
42833;DHT22;64089;51.478;5.692;2023-08-07T01:52:26;13.60;99.90
42833;DHT22;64089;51.478;5.692;2023-08-07T01:54:52;13.70;99.90
42833;DHT22;64089;51.478;5.692;2023-08-07T01:57:17;13.60;99.90
42833;DHT22;64089;51.478;5.692;2023-08-07T01:59:43;13.60;99.90
42833;DHT22;64089;51.478;5.692;2023-08-07T02:02:10;13.60;99.90
42833;DHT22;64089;51.478;5.692;2023-08-07T02:04:35;13.60;99.90
42833;DHT22;64089;51.478;5.692;2023-08-07T02:07:01;13.60;99.90
42833;DHT22;64089;51.478;5.692;2023-08-07T02:09:27;13.60;99.90
42833;DHT22;64089;51.478;5.692;2023-08-07T02:11:52;13.60;99.90
42833;DHT22;64089;51.478;5.692;2023-08-07T02:14:18;13.60;99.90
42833;DHT22;64089;51.478;5.692;2023-08-07T02:16:43;13.60;99.90
42833;DHT22;64089;51.478;5.692;2023-08-07T02:19:09;13.60;99.90
42833;DHT22;64089;51.478;5.692;2023-08-07T02:21:35;13.60;99.90
42833;DHT22;64089;51.478;5.692;2023-08-07T02:24:00;13.70;99.90
42833;DHT22;64089;51.478;5.692;2023-08-07T02:26:26;13.60;99.90
42833;DHT22;64089;51.478;5.692;2023-08-07T02:28:51;13.60;99.90
42833;DHT22;64089;51.478;5.692;2023-08-07T02:31:17;13.60;99.90
42833;DHT22;64089;51.478;5.692;2023-08-07T02:33:43;13.60;99.90
42833;DHT22;64089;51.478;5.692;2023-08-07T02:36:08;13.60;99.90
42833;DHT22;64089;51.478;5.692;2023-08-07T02:38:34;13.50;99.90
42833;DHT22;64089;51.478;5.692;2023-08-07T02:40:59;13.50;99.90
42833;DHT22;64089;51.478;5.692;2023-08-07T02:43:25;13.50;99.90
42833;DHT22;64089;51.478;5.692;2023-08-07T02:45:54;13.50;99.90
42833;DHT22;64089;51.478;5.692;2023-08-07T02:48:19;13.50;99.90
42833;DHT22;64089;51.478;5.692;2023-08-07T02:50:45;13.50;99.90
42833;DHT22;64089;51.478;5.692;2023-08-07T02:53:11;13.50;99.90
42833;DHT22;64089;51.478;5.692;2023-08-07T02:55:37;13.50;99.90
42833;DHT22;64089;51.478;5.692;2023-08-07T02:58:03;13.50;99.90
42833;DHT22;64089;51.478;5.692;2023-08-07T03:00:28;13.50;99.90
42833;DHT22;64089;51.478;5.692;2023-08-07T03:02:54;13.50;99.90
42833;DHT22;64089;51.478;5.692;2023-08-07T03:05:20;13.60;99.90
42833;DHT22;64089;51.478;5.692;2023-08-07T03:07:45;13.60;99.90
42833;DHT22;64089;51.478;5.692;2023-08-07T03:10:11;13.60;99.90
42833;DHT22;64089;51.478;5.692;2023-08-07T03:12:37;13.60;99.90
42833;DHT22;64089;51.478;5.692;2023-08-07T03:15:04;13.50;99.90
42833;DHT22;64089;51.478;5.692;2023-08-07T03:17:30;13.50;99.90
42833;DHT22;64089;51.478;5.692;2023-08-07T03:19:56;13.50;99.90
42833;DHT22;64089;51.478;5.692;2023-08-07T03:22:21;13.40;99.90
42833;DHT22;64089;51.478;5.692;2023-08-07T03:24:48;13.40;99.90
42833;DHT22;64089;51.478;5.692;2023-08-07T03:27:14;13.40;99.90
42833;DHT22;64089;51.478;5.692;2023-08-07T03:29:40;13.40;99.90
42833;DHT22;64089;51.478;5.692;2023-08-07T03:32:05;13.30;99.90
42833;DHT22;64089;51.478;5.692;2023-08-07T03:34:31;13.30;99.90
42833;DHT22;64089;51.478;5.692;2023-08-07T03:36:57;13.30;99.90
42833;DHT22;64089;51.478;5.692;2023-08-07T03:39:25;13.40;99.90
42833;DHT22;64089;51.478;5.692;2023-08-07T03:41:50;13.40;99.90
42833;DHT22;64089;51.478;5.692;2023-08-07T03:44:16;13.40;99.90
42833;DHT22;64089;51.478;5.692;2023-08-07T03:46:42;13.40;99.90
42833;DHT22;64089;51.478;5.692;2023-08-07T03:49:07;13.40;99.90
42833;DHT22;64089;51.478;5.692;2023-08-07T03:51:33;13.40;99.90
42833;DHT22;64089;51.478;5.692;2023-08-07T03:53:59;13.40;99.90
42833;DHT22;64089;51.478;5.692;2023-08-07T03:56:25;13.40;99.90
42833;DHT22;64089;51.478;5.692;2023-08-07T03:58:50;13.40;99.90
42833;DHT22;64089;51.478;5.692;2023-08-07T04:01:16;13.40;99.90
42833;DHT22;64089;51.478;5.692;2023-08-07T04:03:42;13.40;99.90
42833;DHT22;64089;51.478;5.692;2023-08-07T04:06:08;13.40;99.90
42833;DHT22;64089;51.478;5.692;2023-08-07T04:08:33;13.50;99.90
42833;DHT22;64089;51.478;5.692;2023-08-07T04:11:05;13.50;99.90
42833;DHT22;64089;51.478;5.692;2023-08-07T04:13:31;13.50;99.90
42833;DHT22;64089;51.478;5.692;2023-08-07T04:15:57;13.50;99.90
42833;DHT22;64089;51.478;5.692;2023-08-07T04:18:23;13.60;99.90
42833;DHT22;64089;51.478;5.692;2023-08-07T04:20:50;13.60;99.90
42833;DHT22;64089;51.478;5.692;2023-08-07T04:23:16;13.50;99.90
42833;DHT22;64089;51.478;5.692;2023-08-07T04:25:42;13.60;99.90
42833;DHT22;64089;51.478;5.692;2023-08-07T04:28:07;13.60;99.90
42833;DHT22;64089;51.478;5.692;2023-08-07T04:30:33;13.70;99.90
42833;DHT22;64089;51.478;5.692;2023-08-07T04:32:59;13.70;99.90
42833;DHT22;64089;51.478;5.692;2023-08-07T04:35:24;13.80;99.90
42833;DHT22;64089;51.478;5.692;2023-08-07T04:37:50;13.80;99.90
42833;DHT22;64089;51.478;5.692;2023-08-07T04:40:16;13.80;99.90
42833;DHT22;64089;51.478;5.692;2023-08-07T04:42:41;13.90;99.90
42833;DHT22;64089;51.478;5.692;2023-08-07T04:45:07;13.80;99.90
42833;DHT22;64089;51.478;5.692;2023-08-07T04:47:33;13.80;99.90
42833;DHT22;64089;51.478;5.692;2023-08-07T04:49:58;13.90;99.90
42833;DHT22;64089;51.478;5.692;2023-08-07T04:52:24;13.80;99.90
42833;DHT22;64089;51.478;5.692;2023-08-07T04:54:50;13.80;99.90
42833;DHT22;64089;51.478;5.692;2023-08-07T04:57:15;13.80;99.90
42833;DHT22;64089;51.478;5.692;2023-08-07T04:59:41;13.90;99.90
42833;DHT22;64089;51.478;5.692;2023-08-07T05:02:06;13.90;99.90
42833;DHT22;64089;51.478;5.692;2023-08-07T05:04:32;13.90;99.90
42833;DHT22;64089;51.478;5.692;2023-08-07T05:06:58;13.90;99.90
42833;DHT22;64089;51.478;5.692;2023-08-07T05:09:23;13.90;99.90
42833;DHT22;64089;51.478;5.692;2023-08-07T05:11:49;13.90;99.90
42833;DHT22;64089;51.478;5.692;2023-08-07T05:14:14;13.90;99.90
42833;DHT22;64089;51.478;5.692;2023-08-07T05:16:40;13.90;99.90
42833;DHT22;64089;51.478;5.692;2023-08-07T05:19:06;13.90;99.90
42833;DHT22;64089;51.478;5.692;2023-08-07T05:21:31;13.90;99.90
42833;DHT22;64089;51.478;5.692;2023-08-07T05:23:57;13.90;99.90
42833;DHT22;64089;51.478;5.692;2023-08-07T05:26:22;13.90;99.90
42833;DHT22;64089;51.478;5.692;2023-08-07T05:28:48;14.00;99.90
42833;DHT22;64089;51.478;5.692;2023-08-07T05:31:14;14.00;99.90
42833;DHT22;64089;51.478;5.692;2023-08-07T05:33:39;14.00;99.90
42833;DHT22;64089;51.478;5.692;2023-08-07T05:36:05;14.00;99.90
42833;DHT22;64089;51.478;5.692;2023-08-07T05:38:31;14.00;99.90
42833;DHT22;64089;51.478;5.692;2023-08-07T05:40:57;14.00;99.90
42833;DHT22;64089;51.478;5.692;2023-08-07T05:43:23;14.00;99.90
42833;DHT22;64089;51.478;5.692;2023-08-07T05:45:49;14.00;99.90
42833;DHT22;64089;51.478;5.692;2023-08-07T05:48:15;14.00;99.90
42833;DHT22;64089;51.478;5.692;2023-08-07T05:50:42;14.10;99.90
42833;DHT22;64089;51.478;5.692;2023-08-07T05:53:08;14.10;99.90
42833;DHT22;64089;51.478;5.692;2023-08-07T05:55:34;14.10;99.90
42833;DHT22;64089;51.478;5.692;2023-08-07T05:57:59;14.10;99.90
42833;DHT22;64089;51.478;5.692;2023-08-07T06:00:25;14.10;99.90
42833;DHT22;64089;51.478;5.692;2023-08-07T06:02:50;14.00;99.90
42833;DHT22;64089;51.478;5.692;2023-08-07T06:05:16;14.00;99.90
42833;DHT22;64089;51.478;5.692;2023-08-07T06:07:42;13.90;99.90
42833;DHT22;64089;51.478;5.692;2023-08-07T06:10:08;13.90;99.90
42833;DHT22;64089;51.478;5.692;2023-08-07T06:12:34;13.90;99.90
42833;DHT22;64089;51.478;5.692;2023-08-07T06:14:59;14.00;99.90
42833;DHT22;64089;51.478;5.692;2023-08-07T06:17:25;13.90;99.90
42833;DHT22;64089;51.478;5.692;2023-08-07T06:19:51;13.90;99.90
42833;DHT22;64089;51.478;5.692;2023-08-07T06:22:17;14.00;99.90
42833;DHT22;64089;51.478;5.692;2023-08-07T06:24:43;14.00;99.90
42833;DHT22;64089;51.478;5.692;2023-08-07T06:27:08;14.00;99.90
42833;DHT22;64089;51.478;5.692;2023-08-07T06:29:34;14.00;99.90
42833;DHT22;64089;51.478;5.692;2023-08-07T06:31:59;14.10;99.90
42833;DHT22;64089;51.478;5.692;2023-08-07T06:34:25;14.10;99.90
42833;DHT22;64089;51.478;5.692;2023-08-07T06:36:51;14.10;99.90
42833;DHT22;64089;51.478;5.692;2023-08-07T06:39:16;14.20;99.90
42833;DHT22;64089;51.478;5.692;2023-08-07T06:41:42;14.20;99.90
42833;DHT22;64089;51.478;5.692;2023-08-07T06:44:07;14.30;99.90
42833;DHT22;64089;51.478;5.692;2023-08-07T06:46:33;14.40;99.90
42833;DHT22;64089;51.478;5.692;2023-08-07T06:48:59;14.40;99.90
42833;DHT22;64089;51.478;5.692;2023-08-07T06:51:24;14.40;99.90
42833;DHT22;64089;51.478;5.692;2023-08-07T06:53:50;14.50;99.90
42833;DHT22;64089;51.478;5.692;2023-08-07T06:56:15;14.50;99.90
42833;DHT22;64089;51.478;5.692;2023-08-07T06:58:41;14.50;99.90
42833;DHT22;64089;51.478;5.692;2023-08-07T07:01:07;14.50;99.90
42833;DHT22;64089;51.478;5.692;2023-08-07T07:03:32;14.60;99.90
42833;DHT22;64089;51.478;5.692;2023-08-07T07:05:58;14.60;99.90
42833;DHT22;64089;51.478;5.692;2023-08-07T07:08:23;14.50;99.90
42833;DHT22;64089;51.478;5.692;2023-08-07T07:10:49;14.60;99.90
42833;DHT22;64089;51.478;5.692;2023-08-07T07:13:15;14.70;99.90
42833;DHT22;64089;51.478;5.692;2023-08-07T07:15:40;14.70;99.90
42833;DHT22;64089;51.478;5.692;2023-08-07T07:18:06;14.80;99.90
42833;DHT22;64089;51.478;5.692;2023-08-07T07:20:32;14.90;99.90
42833;DHT22;64089;51.478;5.692;2023-08-07T07:22:57;15.00;99.90
42833;DHT22;64089;51.478;5.692;2023-08-07T07:25:23;15.00;99.90
42833;DHT22;64089;51.478;5.692;2023-08-07T07:27:48;15.10;99.90
42833;DHT22;64089;51.478;5.692;2023-08-07T07:30:14;15.20;99.90
42833;DHT22;64089;51.478;5.692;2023-08-07T07:32:39;15.20;99.90
42833;DHT22;64089;51.478;5.692;2023-08-07T07:35:05;15.10;99.90
42833;DHT22;64089;51.478;5.692;2023-08-07T07:37:31;15.00;99.90
42833;DHT22;64089;51.478;5.692;2023-08-07T07:39:57;14.80;99.90
42833;DHT22;64089;51.478;5.692;2023-08-07T07:42:23;14.80;99.90
42833;DHT22;64089;51.478;5.692;2023-08-07T07:44:48;14.80;99.90
42833;DHT22;64089;51.478;5.692;2023-08-07T07:47:14;14.70;99.90
42833;DHT22;64089;51.478;5.692;2023-08-07T07:49:45;14.60;99.90
42833;DHT22;64089;51.478;5.692;2023-08-07T07:52:11;14.70;99.90
42833;DHT22;64089;51.478;5.692;2023-08-07T07:54:37;14.70;99.90
42833;DHT22;64089;51.478;5.692;2023-08-07T07:57:02;14.50;99.90
42833;DHT22;64089;51.478;5.692;2023-08-07T07:59:28;14.60;99.90
42833;DHT22;64089;51.478;5.692;2023-08-07T08:01:54;14.60;99.90
42833;DHT22;64089;51.478;5.692;2023-08-07T08:04:20;14.50;99.90
42833;DHT22;64089;51.478;5.692;2023-08-07T08:06:46;14.40;99.90
42833;DHT22;64089;51.478;5.692;2023-08-07T08:09:13;14.30;99.90
42833;DHT22;64089;51.478;5.692;2023-08-07T08:11:39;14.20;99.90
42833;DHT22;64089;51.478;5.692;2023-08-07T08:14:05;14.10;99.90
42833;DHT22;64089;51.478;5.692;2023-08-07T08:16:30;14.00;99.90
42833;DHT22;64089;51.478;5.692;2023-08-07T08:18:56;14.20;99.90
42833;DHT22;64089;51.478;5.692;2023-08-07T08:21:21;14.20;99.90
42833;DHT22;64089;51.478;5.692;2023-08-07T08:23:47;14.40;99.90
42833;DHT22;64089;51.478;5.692;2023-08-07T08:26:12;14.70;99.90
42833;DHT22;64089;51.478;5.692;2023-08-07T08:28:38;14.90;99.90
42833;DHT22;64089;51.478;5.692;2023-08-07T08:31:04;15.00;99.90
42833;DHT22;64089;51.478;5.692;2023-08-07T08:33:30;15.20;99.90
42833;DHT22;64089;51.478;5.692;2023-08-07T08:35:56;15.30;99.90
42833;DHT22;64089;51.478;5.692;2023-08-07T08:38:21;15.30;99.90
42833;DHT22;64089;51.478;5.692;2023-08-07T08:40:47;15.20;99.90
42833;DHT22;64089;51.478;5.692;2023-08-07T08:43:16;15.20;99.90
42833;DHT22;64089;51.478;5.692;2023-08-07T08:45:43;15.30;99.90
42833;DHT22;64089;51.478;5.692;2023-08-07T08:48:12;15.30;99.90
42833;DHT22;64089;51.478;5.692;2023-08-07T08:50:43;15.40;99.90
42833;DHT22;64089;51.478;5.692;2023-08-07T08:53:09;15.50;99.90
42833;DHT22;64089;51.478;5.692;2023-08-07T08:55:35;15.60;99.90
42833;DHT22;64089;51.478;5.692;2023-08-07T08:58:01;15.80;99.90
42833;DHT22;64089;51.478;5.692;2023-08-07T09:00:27;16.00;99.90
42833;DHT22;64089;51.478;5.692;2023-08-07T09:02:55;16.10;99.90
42833;DHT22;64089;51.478;5.692;2023-08-07T09:05:21;16.30;99.90
42833;DHT22;64089;51.478;5.692;2023-08-07T09:07:47;16.70;99.90
42833;DHT22;64089;51.478;5.692;2023-08-07T09:10:14;17.00;99.90
42833;DHT22;64089;51.478;5.692;2023-08-07T09:13:24;17.00;99.90
42833;DHT22;64089;51.478;5.692;2023-08-07T09:15:34;17.00;99.90
42833;DHT22;64089;51.478;5.692;2023-08-07T09:18:03;16.80;99.90
42833;DHT22;64089;51.478;5.692;2023-08-07T09:20:30;16.70;99.90
42833;DHT22;64089;51.478;5.692;2023-08-07T09:22:56;16.60;99.90
42833;DHT22;64089;51.478;5.692;2023-08-07T09:25:32;16.50;99.90
42833;DHT22;64089;51.478;5.692;2023-08-07T09:28:01;16.70;99.90
42833;DHT22;64089;51.478;5.692;2023-08-07T09:30:30;17.00;99.90
42833;DHT22;64089;51.478;5.692;2023-08-07T09:32:59;17.30;99.90
42833;DHT22;64089;51.478;5.692;2023-08-07T09:35:26;17.50;99.90
42833;DHT22;64089;51.478;5.692;2023-08-07T09:37:52;17.50;99.90
42833;DHT22;64089;51.478;5.692;2023-08-07T09:40:18;17.40;99.90
42833;DHT22;64089;51.478;5.692;2023-08-07T09:42:44;17.40;99.90
42833;DHT22;64089;51.478;5.692;2023-08-07T09:45:24;17.40;99.90
42833;DHT22;64089;51.478;5.692;2023-08-07T09:48:04;17.30;99.90
42833;DHT22;64089;51.478;5.692;2023-08-07T09:50:31;17.30;99.90
42833;DHT22;64089;51.478;5.692;2023-08-07T09:52:57;17.40;99.90
42833;DHT22;64089;51.478;5.692;2023-08-07T09:55:24;17.50;99.90
42833;DHT22;64089;51.478;5.692;2023-08-07T09:57:50;17.60;99.90
42833;DHT22;64089;51.478;5.692;2023-08-07T10:00:17;17.80;99.90
42833;DHT22;64089;51.478;5.692;2023-08-07T10:02:46;18.00;99.90
42833;DHT22;64089;51.478;5.692;2023-08-07T10:05:13;18.30;99.90
42833;DHT22;64089;51.478;5.692;2023-08-07T10:07:39;18.20;99.90
42833;DHT22;64089;51.478;5.692;2023-08-07T10:10:06;18.10;99.90
42833;DHT22;64089;51.478;5.692;2023-08-07T10:12:32;18.20;99.90
42833;DHT22;64089;51.478;5.692;2023-08-07T10:15:02;18.20;99.90
42833;DHT22;64089;51.478;5.692;2023-08-07T10:17:29;18.00;99.90
42833;DHT22;64089;51.478;5.692;2023-08-07T10:19:55;18.00;99.90
42833;DHT22;64089;51.478;5.692;2023-08-07T10:22:25;17.90;99.90
42833;DHT22;64089;51.478;5.692;2023-08-07T10:24:53;17.80;99.90
42833;DHT22;64089;51.478;5.692;2023-08-07T10:27:20;17.80;99.90
42833;DHT22;64089;51.478;5.692;2023-08-07T10:29:48;17.80;99.90
42833;DHT22;64089;51.478;5.692;2023-08-07T10:32:15;18.00;99.90
42833;DHT22;64089;51.478;5.692;2023-08-07T10:34:47;18.20;99.90
42833;DHT22;64089;51.478;5.692;2023-08-07T10:40:04;18.00;99.90
42833;DHT22;64089;51.478;5.692;2023-08-07T10:42:55;18.00;99.90
42833;DHT22;64089;51.478;5.692;2023-08-07T10:45:22;18.10;99.90
42833;DHT22;64089;51.478;5.692;2023-08-07T10:50:32;18.30;99.90
42833;DHT22;64089;51.478;5.692;2023-08-07T10:53:04;18.30;99.90
42833;DHT22;64089;51.478;5.692;2023-08-07T10:55:45;18.30;99.90
42833;DHT22;64089;51.478;5.692;2023-08-07T10:58:31;18.60;99.90
42833;DHT22;64089;51.478;5.692;2023-08-07T11:01:19;18.70;99.90
42833;DHT22;64089;51.478;5.692;2023-08-07T11:03:56;18.70;99.90
42833;DHT22;64089;51.478;5.692;2023-08-07T11:06:24;18.70;99.90
42833;DHT22;64089;51.478;5.692;2023-08-07T11:08:52;18.60;99.90
42833;DHT22;64089;51.478;5.692;2023-08-07T11:11:18;18.70;99.90
42833;DHT22;64089;51.478;5.692;2023-08-07T11:13:44;18.70;99.90
42833;DHT22;64089;51.478;5.692;2023-08-07T11:16:09;18.60;99.90
42833;DHT22;64089;51.478;5.692;2023-08-07T11:18:37;18.70;99.90
42833;DHT22;64089;51.478;5.692;2023-08-07T11:21:09;18.80;99.90
42833;DHT22;64089;51.478;5.692;2023-08-07T11:23:39;18.80;99.90
42833;DHT22;64089;51.478;5.692;2023-08-07T11:26:05;19.00;99.90
42833;DHT22;64089;51.478;5.692;2023-08-07T11:28:32;18.90;99.90
42833;DHT22;64089;51.478;5.692;2023-08-07T11:30:58;19.10;99.90
42833;DHT22;64089;51.478;5.692;2023-08-07T11:33:24;19.20;99.90
42833;DHT22;64089;51.478;5.692;2023-08-07T11:35:50;19.20;99.90
42833;DHT22;64089;51.478;5.692;2023-08-07T11:40:57;19.00;99.90
42833;DHT22;64089;51.478;5.692;2023-08-07T11:43:24;18.90;99.00
42833;DHT22;64089;51.478;5.692;2023-08-07T11:45:50;19.00;99.90
42833;DHT22;64089;51.478;5.692;2023-08-07T11:48:16;19.00;99.80
42833;DHT22;64089;51.478;5.692;2023-08-07T11:50:42;19.10;99.80
42833;DHT22;64089;51.478;5.692;2023-08-07T11:53:08;19.00;99.50
42833;DHT22;64089;51.478;5.692;2023-08-07T11:55:34;19.00;99.90
42833;DHT22;64089;51.478;5.692;2023-08-07T11:58:03;19.30;99.90
42833;DHT22;64089;51.478;5.692;2023-08-07T12:00:29;19.30;99.90
42833;DHT22;64089;51.478;5.692;2023-08-07T12:02:54;19.20;99.90
42833;DHT22;64089;51.478;5.692;2023-08-07T12:05:20;19.20;99.90
42833;DHT22;64089;51.478;5.692;2023-08-07T12:07:47;19.20;99.90
42833;DHT22;64089;51.478;5.692;2023-08-07T12:10:13;19.40;99.90
42833;DHT22;64089;51.478;5.692;2023-08-07T12:12:39;19.40;99.90
42833;DHT22;64089;51.478;5.692;2023-08-07T12:15:09;19.30;99.90
42833;DHT22;64089;51.478;5.692;2023-08-07T12:17:36;19.20;99.90
42833;DHT22;64089;51.478;5.692;2023-08-07T12:20:04;19.30;99.90
42833;DHT22;64089;51.478;5.692;2023-08-07T12:22:32;19.40;99.90
42833;DHT22;64089;51.478;5.692;2023-08-07T12:24:57;19.60;99.90
42833;DHT22;64089;51.478;5.692;2023-08-07T12:27:23;19.80;99.90
42833;DHT22;64089;51.478;5.692;2023-08-07T12:29:49;20.30;99.90
42833;DHT22;64089;51.478;5.692;2023-08-07T12:32:15;19.90;99.90
42833;DHT22;64089;51.478;5.692;2023-08-07T12:34:40;19.90;99.90
42833;DHT22;64089;51.478;5.692;2023-08-07T12:37:06;19.80;99.90
42833;DHT22;64089;51.478;5.692;2023-08-07T12:39:32;19.60;99.90
42833;DHT22;64089;51.478;5.692;2023-08-07T12:41:57;19.70;99.90
42833;DHT22;64089;51.478;5.692;2023-08-07T12:44:23;19.90;99.90
42833;DHT22;64089;51.478;5.692;2023-08-07T12:46:49;19.90;99.90
42833;DHT22;64089;51.478;5.692;2023-08-07T12:49:15;19.90;99.90
42833;DHT22;64089;51.478;5.692;2023-08-07T12:51:41;19.90;99.90
42833;DHT22;64089;51.478;5.692;2023-08-07T12:54:06;20.00;99.90
42833;DHT22;64089;51.478;5.692;2023-08-07T12:56:32;20.10;99.90
42833;DHT22;64089;51.478;5.692;2023-08-07T12:58:57;19.90;99.90
42833;DHT22;64089;51.478;5.692;2023-08-07T13:01:23;19.50;99.90
42833;DHT22;64089;51.478;5.692;2023-08-07T13:03:49;19.20;99.90
42833;DHT22;64089;51.478;5.692;2023-08-07T13:06:14;18.90;99.90
42833;DHT22;64089;51.478;5.692;2023-08-07T13:08:40;18.80;99.90
42833;DHT22;64089;51.478;5.692;2023-08-07T13:11:06;18.50;99.90
42833;DHT22;64089;51.478;5.692;2023-08-07T13:13:32;18.40;99.90
42833;DHT22;64089;51.478;5.692;2023-08-07T13:15:58;18.60;99.90
42833;DHT22;64089;51.478;5.692;2023-08-07T13:18:24;19.10;99.90
42833;DHT22;64089;51.478;5.692;2023-08-07T13:20:50;19.20;99.90
42833;DHT22;64089;51.478;5.692;2023-08-07T13:23:15;19.40;99.90
42833;DHT22;64089;51.478;5.692;2023-08-07T13:25:41;19.70;99.90
42833;DHT22;64089;51.478;5.692;2023-08-07T13:28:06;20.00;99.90
42833;DHT22;64089;51.478;5.692;2023-08-07T13:30:33;20.30;99.90
42833;DHT22;64089;51.478;5.692;2023-08-07T13:32:58;20.80;99.90
42833;DHT22;64089;51.478;5.692;2023-08-07T13:35:24;21.00;99.90
42833;DHT22;64089;51.478;5.692;2023-08-07T13:37:50;21.30;99.90
42833;DHT22;64089;51.478;5.692;2023-08-07T13:40:15;21.20;99.90
42833;DHT22;64089;51.478;5.692;2023-08-07T13:42:41;21.10;99.90
42833;DHT22;64089;51.478;5.692;2023-08-07T13:45:07;20.90;99.90
42833;DHT22;64089;51.478;5.692;2023-08-07T13:47:33;20.40;99.90
42833;DHT22;64089;51.478;5.692;2023-08-07T13:49:58;20.10;99.90
42833;DHT22;64089;51.478;5.692;2023-08-07T13:52:24;19.60;99.90
42833;DHT22;64089;51.478;5.692;2023-08-07T13:54:50;19.30;99.90
42833;DHT22;64089;51.478;5.692;2023-08-07T13:57:16;19.20;99.90
42833;DHT22;64089;51.478;5.692;2023-08-07T13:59:42;19.00;99.90
42833;DHT22;64089;51.478;5.692;2023-08-07T14:02:09;18.80;99.90
42833;DHT22;64089;51.478;5.692;2023-08-07T14:04:34;18.60;99.90
42833;DHT22;64089;51.478;5.692;2023-08-07T14:07:02;18.30;99.90
42833;DHT22;64089;51.478;5.692;2023-08-07T14:09:29;18.00;99.90
42833;DHT22;64089;51.478;5.692;2023-08-07T14:11:55;17.90;99.90
42833;DHT22;64089;51.478;5.692;2023-08-07T14:14:22;18.00;99.90
42833;DHT22;64089;51.478;5.692;2023-08-07T14:16:48;18.10;99.90
42833;DHT22;64089;51.478;5.692;2023-08-07T14:19:13;18.20;99.90
42833;DHT22;64089;51.478;5.692;2023-08-07T14:21:39;18.30;99.90
42833;DHT22;64089;51.478;5.692;2023-08-07T14:24:05;18.30;99.90
42833;DHT22;64089;51.478;5.692;2023-08-07T14:26:31;18.10;99.90
42833;DHT22;64089;51.478;5.692;2023-08-07T14:28:57;18.10;99.90
42833;DHT22;64089;51.478;5.692;2023-08-07T14:31:22;18.20;99.90
42833;DHT22;64089;51.478;5.692;2023-08-07T14:33:48;18.50;99.90
42833;DHT22;64089;51.478;5.692;2023-08-07T14:36:13;18.60;99.90
42833;DHT22;64089;51.478;5.692;2023-08-07T14:38:40;18.60;99.90
42833;DHT22;64089;51.478;5.692;2023-08-07T14:41:06;18.50;99.90
42833;DHT22;64089;51.478;5.692;2023-08-07T14:43:31;18.40;99.90
42833;DHT22;64089;51.478;5.692;2023-08-07T14:45:58;18.40;99.90
42833;DHT22;64089;51.478;5.692;2023-08-07T14:48:24;18.60;99.90
42833;DHT22;64089;51.478;5.692;2023-08-07T14:50:50;18.90;99.90
42833;DHT22;64089;51.478;5.692;2023-08-07T14:53:16;19.20;99.90
42833;DHT22;64089;51.478;5.692;2023-08-07T14:55:43;19.60;99.90
42833;DHT22;64089;51.478;5.692;2023-08-07T14:58:09;20.20;99.90
42833;DHT22;64089;51.478;5.692;2023-08-07T15:00:35;20.40;99.90
42833;DHT22;64089;51.478;5.692;2023-08-07T15:03:00;20.30;99.90
42833;DHT22;64089;51.478;5.692;2023-08-07T15:05:27;20.50;99.90
42833;DHT22;64089;51.478;5.692;2023-08-07T15:07:53;20.30;99.90
42833;DHT22;64089;51.478;5.692;2023-08-07T15:10:19;20.20;99.90
42833;DHT22;64089;51.478;5.692;2023-08-07T15:12:47;20.20;99.90
42833;DHT22;64089;51.478;5.692;2023-08-07T15:15:13;20.20;99.90
42833;DHT22;64089;51.478;5.692;2023-08-07T15:17:38;20.00;99.90
42833;DHT22;64089;51.478;5.692;2023-08-07T15:20:05;20.30;99.90
42833;DHT22;64089;51.478;5.692;2023-08-07T15:22:30;20.90;99.90
42833;DHT22;64089;51.478;5.692;2023-08-07T15:24:56;21.10;99.90
42833;DHT22;64089;51.478;5.692;2023-08-07T15:27:22;21.00;99.90
42833;DHT22;64089;51.478;5.692;2023-08-07T15:29:47;20.70;99.90
42833;DHT22;64089;51.478;5.692;2023-08-07T15:32:13;20.30;99.90
42833;DHT22;64089;51.478;5.692;2023-08-07T15:34:45;19.90;99.90
42833;DHT22;64089;51.478;5.692;2023-08-07T15:37:10;19.70;99.90
42833;DHT22;64089;51.478;5.692;2023-08-07T15:39:36;19.50;99.90
42833;DHT22;64089;51.478;5.692;2023-08-07T15:42:02;19.70;99.90
42833;DHT22;64089;51.478;5.692;2023-08-07T15:44:27;19.60;99.90
42833;DHT22;64089;51.478;5.692;2023-08-07T15:46:53;19.50;99.90